Terminal Aerodrome Forecast
Issued by NWS Tallahassee, FL

Home | Current Version | Previous Version | Text Only | Print | Product List | Glossary On
Versions: 1 2 3 4 5 6 7 8 9 10 11 12 13
000
FTUS42 KTAE 281720
TAFTLH
TAF
KTLH 281720Z 2818/2918 13007KT P6SM VCTS BKN040CB
     FM290300 VRB04KT P6SM SCT250
     FM291500 10007KT P6SM VCTS BKN040CB=

USA.gov is the U.S. government's official web portal to all federal, state and local government web resources and services.